createdAt,value
2022-08-25T00:03:57.236Z,72
2022-08-25T00:19:13.205Z,72.5
2022-08-25T00:34:29.175Z,73.5
2022-08-25T00:49:46.179Z,75.5
2022-08-25T01:05:02.115Z,76.5
2022-08-25T01:20:19.084Z,76
2022-08-25T01:35:36.048Z,77.5
2022-08-25T01:50:54.060Z,77.5
2022-08-25T02:06:09.989Z,79
2022-08-25T02:21:25.990Z,81
2022-08-25T02:36:41.933Z,80
2022-08-25T02:51:58.927Z,81.5
2022-08-25T03:07:14.875Z,84
2022-08-25T03:22:31.869Z,85
2022-08-25T03:37:48.836Z,87
2022-08-25T03:53:05.807Z,87.5
2022-08-25T04:08:21.784Z,86.5
2022-08-25T04:23:37.748Z,87
2022-08-25T04:38:53.720Z,89
2022-08-25T04:54:10.690Z,90.5
2022-08-25T05:09:26.657Z,89.5
2022-08-25T05:24:43.625Z,88
2022-08-25T05:40:00.674Z,78.5
2022-08-25T05:55:17.570Z,75.5
2022-08-25T06:10:33.532Z,74
2022-08-25T06:25:49.500Z,75
2022-08-25T06:41:05.475Z,73
2022-08-25T06:56:22.401Z,71.5
2022-08-25T07:11:39.415Z,65
2022-08-25T07:26:56.339Z,63.5
2022-08-25T07:42:12.333Z,63.5
2022-08-25T07:57:29.279Z,58.5
2022-08-25T08:12:45.274Z,54.5
2022-08-25T08:28:01.204Z,51.5
2022-08-25T08:43:18.091Z,48
2022-08-25T08:58:34.134Z,46.5
2022-08-25T09:13:51.138Z,45.5
2022-08-25T09:29:08.065Z,44.5
2022-08-25T09:44:24.080Z,42.5
2022-08-25T09:59:41.008Z,41
2022-08-25T10:14:57.005Z,38
2022-08-25T10:30:12.939Z,37
2022-08-25T10:30:53.914Z,37
2022-08-25T10:45:29.948Z,37
2022-08-25T11:00:48.207Z,36
2022-08-25T11:16:17.008Z,36.5
2022-08-25T11:31:18.889Z,34
2022-08-25T11:46:35.787Z,31
2022-08-25T12:01:53.785Z,30.5
2022-08-25T12:17:12.069Z,30
2022-08-25T12:32:27.408Z,30
2022-08-25T12:47:44.792Z,27.5
2022-08-25T13:02:59.730Z,25.5
2022-08-25T13:18:15.608Z,23
2022-08-25T13:33:31.576Z,23
2022-08-25T13:34:19.520Z,23
2022-08-25T13:48:50.547Z,23.5
2022-08-25T14:04:06.993Z,23.5
2022-08-25T14:19:22.489Z,24
2022-08-25T14:34:38.457Z,24
2022-08-25T14:49:55.439Z,25.5
2022-08-25T15:05:11.394Z,25.5
2022-08-25T15:20:28.397Z,26
2022-08-25T15:35:45.643Z,25
2022-08-25T15:51:02.305Z,27
2022-08-25T16:06:18.281Z,27
2022-08-25T16:21:34.278Z,28
2022-08-25T16:36:51.658Z,29
2022-08-25T16:52:07.222Z,29.5
2022-08-25T17:07:24.173Z,31.5
2022-08-25T17:22:41.178Z,33
2022-08-25T17:37:58.147Z,33.5
2022-08-25T17:53:15.120Z,34
2022-08-25T18:08:35.152Z,34.5
2022-08-25T18:23:47.053Z,34.5
2022-08-25T18:39:03.019Z,34.5
2022-08-25T18:54:23.273Z,37
2022-08-25T19:09:38.962Z,39.5
2022-08-25T19:24:54.934Z,41.5
2022-08-25T19:40:10.952Z,43
2022-08-25T19:55:27.860Z,39
2022-08-25T20:10:43.822Z,41
2022-08-25T20:25:59.759Z,41
2022-08-25T20:41:16.759Z,39.5
2022-08-25T20:56:34.697Z,37.5
2022-08-25T21:11:51.729Z,38.5
2022-08-25T21:27:07.630Z,37.5
2022-08-25T21:42:23.629Z,37.5
2022-08-25T21:57:40.569Z,38
2022-08-25T22:12:56.565Z,38
2022-08-25T22:28:14.422Z,41.5
2022-08-25T22:43:29.503Z,45.5
2022-08-25T22:58:51.861Z,47.5
2022-08-25T23:14:04.445Z,49
2022-08-25T23:29:20.385Z,50.5
2022-08-25T23:44:36.378Z,51.5
2022-08-25T23:59:53.341Z,52.5
